Time;durP1;ratioP1;P1;durP2;ratioP2;P2;SDS_P1;SDS_P2;PMS_P1;PMS_P2;Temp;Humidity;BMP_temperature;BMP_pressure;BME280_temperature;BME280_humidity;BME280_pressure;Samples;Min_cycle;Max_cycle;Signal;HPM_P1;HPM_P2
2022/08/09 00:01:30;;;;;;;2.37;1.43;;;21.30;56.40;;;;;;5015564;28;20964;-74
2022/08/09 00:03:55;;;;;;;2.23;1.20;;;21.30;56.60;;;;;;5032991;28;20596;-74
2022/08/09 00:06:21;;;;;;;2.00;1.20;;;21.20;56.90;;;;;;5032732;28;20569;-73
2022/08/09 00:08:49;;;;;;;2.40;1.40;;;21.20;57.00;;;;;;5033101;28;20554;-74
2022/08/09 00:11:16;;;;;;;2.73;1.00;;;21.20;57.40;;;;;;5033056;28;20177;-74
2022/08/09 00:13:42;;;;;;;2.47;1.20;;;21.10;57.50;;;;;;5032840;28;20918;-73
2022/08/09 00:16:08;;;;;;;4.43;1.50;;;21.10;57.80;;;;;;5015330;28;20561;-73
2022/08/09 00:18:34;;;;;;;2.60;1.10;;;21.10;58.00;;;;;;4998960;28;20596;-73
2022/08/09 00:21:01;;;;;;;2.53;1.00;;;21.00;58.90;;;;;;5032889;28;20166;-73
2022/08/09 00:23:27;;;;;;;1.80;1.00;;;21.00;58.60;;;;;;5032276;28;20754;-73
2022/08/09 00:25:53;;;;;;;2.27;0.93;;;21.00;58.90;;;;;;5031143;28;20671;-73
2022/08/09 00:28:19;;;;;;;1.80;1.10;;;20.90;59.20;;;;;;5032705;28;20624;-73
2022/08/09 00:30:44;;;;;;;2.30;1.10;;;20.90;59.50;;;;;;5032654;28;20626;-74
2022/08/09 00:33:10;;;;;;;2.27;1.00;;;20.90;59.80;;;;;;5032698;28;20226;-73
2022/08/09 00:35:36;;;;;;;2.43;1.10;;;20.80;60.10;;;;;;5014686;28;20207;-74
2022/08/09 00:38:02;;;;;;;1.80;1.03;;;20.80;60.60;;;;;;5032606;28;20192;-74
2022/08/09 00:40:27;;;;;;;1.50;0.97;;;20.80;61.10;;;;;;5014972;28;20190;-74
2022/08/09 00:42:53;;;;;;;2.80;0.90;;;20.70;61.40;;;;;;5014778;28;20198;-73
2022/08/09 00:45:19;;;;;;;3.13;1.10;;;20.70;61.80;;;;;;5032268;28;20188;-74
2022/08/09 00:47:44;;;;;;;3.80;1.23;;;20.70;62.30;;;;;;5032389;28;20284;-74
2022/08/09 00:50:10;;;;;;;2.33;1.27;;;20.70;62.90;;;;;;5032345;28;20571;-74
2022/08/09 00:52:36;;;;;;;1.57;1.00;;;20.60;63.00;;;;;;4998544;28;20170;-74
2022/08/09 00:55:03;;;;;;;2.30;1.20;;;20.60;63.50;;;;;;5031972;28;20598;-74
2022/08/09 00:57:30;;;;;;;3.50;1.30;;;20.60;64.00;;;;;;5032194;28;20568;-74
2022/08/09 00:59:58;;;;;;;1.87;1.00;;;20.60;64.60;;;;;;5032199;28;20924;-74
2022/08/09 01:02:28;;;;;;;3.00;1.27;;;20.50;64.90;;;;;;5032169;28;20634;-74
2022/08/09 01:05:00;;;;;;;3.03;1.37;;;20.50;65.30;;;;;;5031664;28;20612;-74
2022/08/09 01:07:37;;;;;;;3.00;1.10;;;20.50;65.80;;;;;;5031913;28;20647;-74
2022/08/09 01:10:41;;;;;;;1.83;1.13;;;20.40;66.80;;;;;;5032202;28;20561;-74
2022/08/09 01:13:11;;;;;;;3.00;1.27;;;20.40;67.30;;;;;;5000828;28;20673;-74
2022/08/09 01:15:42;;;;;;;3.30;1.40;;;20.40;67.50;;;;;;5031541;28;20576;-74
2022/08/09 01:18:11;;;;;;;2.47;1.23;;;20.40;67.90;;;;;;5031968;28;20585;-74
2022/08/09 01:21:06;;;;;;;2.13;1.57;;;20.40;68.30;;;;;;5031963;28;20981;-74
2022/08/09 01:23:40;;;;;;;2.40;1.30;;;20.30;69.40;;;;;;5031794;28;20612;-74
2022/08/09 01:26:09;;;;;;;3.10;1.10;;;20.30;70.30;;;;;;5031374;28;20570;-73
2022/08/09 01:28:40;;;;;;;1.90;1.20;;;20.30;69.80;;;;;;5031777;28;20635;-73
2022/08/09 01:31:10;;;;;;;2.20;1.20;;;20.30;70.50;;;;;;5032071;28;20565;-74
2022/08/09 01:33:38;;;;;;;2.27;0.90;;;20.30;70.80;;;;;;5031706;28;20588;-74
2022/08/09 01:36:10;;;;;;;2.40;1.40;;;20.20;70.90;;;;;;5030525;28;20611;-74
2022/08/09 01:38:38;;;;;;;3.57;1.70;;;20.20;71.70;;;;;;5013935;28;20633;-74
2022/08/09 01:41:13;;;;;;;2.77;1.37;;;20.20;72.10;;;;;;5031553;28;20573;-74
2022/08/09 01:43:43;;;;;;;2.63;1.27;;;20.20;73.10;;;;;;5014051;28;20600;-73
2022/08/09 01:46:11;;;;;;;2.57;1.43;;;20.10;72.90;;;;;;5031243;28;20568;-73
2022/08/09 01:48:37;;;;;;;1.80;1.10;;;20.10;73.50;;;;;;5031447;28;20619;-74
2022/08/09 01:51:04;;;;;;;2.27;1.30;;;20.10;74.10;;;;;;5031639;28;20894;-73
2022/08/09 01:53:32;;;;;;;2.90;1.77;;;20.10;74.40;;;;;;5031343;28;20642;-73
2022/08/09 01:56:00;;;;;;;2.60;1.20;;;20.10;75.00;;;;;;5031052;28;20581;-74
2022/08/09 01:58:28;;;;;;;5.73;1.77;;;20.10;75.50;;;;;;5031387;28;20939;-73
2022/08/09 02:00:56;;;;;;;2.80;1.50;;;20.00;75.70;;;;;;5031484;28;20568;-74
2022/08/09 02:03:23;;;;;;;3.63;1.40;;;20.00;76.20;;;;;;5031486;28;20600;-74
2022/08/09 02:05:52;;;;;;;1.63;1.10;;;20.00;76.80;;;;;;5031483;28;20607;-74
2022/08/09 02:08:20;;;;;;;1.80;1.20;;;20.00;77.40;;;;;;5032214;28;20616;-74
2022/08/09 02:10:50;;;;;;;2.67;1.20;;;19.90;77.80;;;;;;5031078;28;20565;-74
2022/08/09 02:13:17;;;;;;;2.67;1.10;;;19.90;78.30;;;;;;5029976;28;21156;-74
2022/08/09 02:15:47;;;;;;;2.03;1.17;;;19.90;78.50;;;;;;5013275;28;20929;-74
2022/08/09 02:18:16;;;;;;;2.50;1.50;;;19.90;79.30;;;;;;5031111;28;20565;-74
2022/08/09 02:20:46;;;;;;;2.63;1.00;;;19.90;79.70;;;;;;5031093;28;20568;-74
2022/08/09 02:23:21;;;;;;;3.47;1.10;;;19.90;80.70;;;;;;5031028;28;20624;-74
2022/08/09 02:25:50;;;;;;;2.13;1.10;;;19.80;80.90;;;;;;5030764;28;20568;-74
2022/08/09 02:28:20;;;;;;;4.50;1.50;;;19.90;80.90;;;;;;5013523;28;21258;-74
2022/08/09 02:30:50;;;;;;;2.43;1.20;;;19.90;82.30;;;;;;5013526;28;20560;-73
2022/08/09 02:33:23;;;;;;;1.50;0.93;;;19.80;81.90;;;;;;5031014;28;20603;-74
2022/08/09 02:35:52;;;;;;;6.90;1.73;;;19.80;82.60;;;;;;5030697;28;20561;-74
2022/08/09 02:38:30;;;;;;;2.47;1.63;;;19.80;82.60;;;;;;5031116;28;20645;-74
2022/08/09 02:41:02;;;;;;;3.00;1.10;;;19.80;83.90;;;;;;5031058;28;20607;-74
2022/08/09 02:43:30;;;;;;;2.97;1.60;;;19.80;83.80;;;;;;5033423;28;20637;-74
2022/08/09 02:46:00;;;;;;;3.03;1.47;;;19.80;83.90;;;;;;5030989;28;20572;-74
2022/08/09 02:48:29;;;;;;;2.57;1.63;;;19.70;84.40;;;;;;5034706;28;20623;-74
2022/08/09 02:50:57;;;;;;;3.03;1.23;;;19.70;85.00;;;;;;5017036;28;20576;-74
2022/08/09 02:53:35;;;;;;;4.30;1.60;;;19.70;85.10;;;;;;5034214;28;20654;-74
2022/08/09 02:56:03;;;;;;;1.97;1.23;;;19.70;85.50;;;;;;5016485;28;20628;-73
2022/08/09 02:58:31;;;;;;;3.90;1.33;;;19.70;85.80;;;;;;5016753;28;20580;-75
2022/08/09 03:00:58;;;;;;;3.70;1.00;;;19.70;86.30;;;;;;5034546;28;20999;-74
2022/08/09 03:03:25;;;;;;;4.97;1.67;;;19.70;86.50;;;;;;5034329;28;21185;-74
2022/08/09 03:05:52;;;;;;;1.90;1.33;;;19.70;87.00;;;;;;5034120;28;21147;-74
2022/08/09 03:08:20;;;;;;;2.93;1.30;;;19.60;87.10;;;;;;5034423;28;20674;-73
2022/08/09 03:10:48;;;;;;;4.10;1.60;;;19.60;87.40;;;;;;5034255;28;20575;-73
2022/08/09 03:13:15;;;;;;;5.10;1.93;;;19.60;87.60;;;;;;5034175;28;20632;-74
2022/08/09 03:15:42;;;;;;;4.43;2.07;;;19.60;88.20;;;;;;5033916;28;20560;-74
2022/08/09 03:18:09;;;;;;;3.10;1.60;;;19.50;88.30;;;;;;5034216;28;20718;-75
2022/08/09 03:20:38;;;;;;;2.10;1.30;;;19.50;88.90;;;;;;5021689;28;20683;-75
2022/08/09 03:23:04;;;;;;;3.80;1.40;;;19.50;89.40;;;;;;5034213;28;21085;-75
2022/08/09 03:25:32;;;;;;;2.03;1.20;;;19.50;89.80;;;;;;5034058;28;20577;-74
2022/08/09 03:28:00;;;;;;;2.23;1.20;;;19.40;90.00;;;;;;5016513;28;21029;-74
2022/08/09 03:30:28;;;;;;;2.00;1.43;;;19.40;90.20;;;;;;5032950;28;20575;-74
2022/08/09 03:32:59;;;;;;;3.50;1.50;;;19.40;90.40;;;;;;5016168;28;20666;-74
2022/08/09 03:35:25;;;;;;;2.83;1.67;;;19.40;90.60;;;;;;5033411;28;20568;-74
2022/08/09 03:37:52;;;;;;;1.70;1.20;;;19.40;90.70;;;;;;5033823;28;20572;-74
2022/08/09 03:40:17;;;;;;;3.67;1.60;;;19.40;90.80;;;;;;5018922;28;20615;-74
2022/08/09 03:42:44;;;;;;;2.50;1.73;;;19.30;91.00;;;;;;5033589;28;20581;-74
2022/08/09 03:45:10;;;;;;;2.83;1.30;;;19.30;91.10;;;;;;5032077;28;20182;-74
2022/08/09 03:47:37;;;;;;;3.70;1.40;;;19.30;91.30;;;;;;4999874;28;20723;-74
2022/08/09 03:50:07;;;;;;;3.17;1.60;;;19.30;91.50;;;;;;5032303;28;20948;-74
2022/08/09 03:52:35;;;;;;;2.13;1.20;;;19.30;91.70;;;;;;5034544;28;20580;-74
2022/08/09 03:55:03;;;;;;;3.93;1.30;;;19.30;91.80;;;;;;5036210;28;21479;-75
2022/08/09 03:57:29;;;;;;;2.50;1.47;;;19.20;92.00;;;;;;5028680;28;20573;-74
2022/08/09 03:59:56;;;;;;;2.80;1.27;;;19.20;92.00;;;;;;5031855;28;20596;-74
2022/08/09 04:02:25;;;;;;;2.37;1.30;;;19.20;92.10;;;;;;5033287;28;20599;-75
2022/08/09 04:04:51;;;;;;;2.93;1.40;;;19.20;92.40;;;;;;5031276;28;21061;-75
2022/08/09 04:07:17;;;;;;;2.70;1.40;;;19.20;92.50;;;;;;5033116;28;20631;-75
2022/08/09 04:09:43;;;;;;;2.33;1.67;;;19.10;92.60;;;;;;5031634;28;20588;-75
2022/08/09 04:12:08;;;;;;;2.57;1.37;;;19.10;92.80;;;;;;5032839;28;20913;-75
2022/08/09 04:14:35;;;;;;;3.30;1.63;;;19.10;92.90;;;;;;5026742;28;20280;-75
2022/08/09 04:17:01;;;;;;;4.67;1.57;;;19.10;93.10;;;;;;5023961;28;20170;-75
2022/08/09 04:19:26;;;;;;;2.50;1.40;;;19.10;93.20;;;;;;5037451;28;20593;-75
2022/08/09 04:21:52;;;;;;;3.60;1.43;;;19.10;93.40;;;;;;5032851;28;20212;-76
2022/08/09 04:24:18;;;;;;;4.53;2.13;;;19.10;93.50;;;;;;5032608;28;21002;-75
2022/08/09 04:26:44;;;;;;;2.37;1.40;;;19.10;93.70;;;;;;5030970;28;20177;-75
2022/08/09 04:29:10;;;;;;;3.27;1.20;;;19.10;93.80;;;;;;5033110;28;20627;-75
2022/08/09 04:31:35;;;;;;;2.97;1.33;;;19.10;93.90;;;;;;5032916;28;20174;-75
2022/08/09 04:34:02;;;;;;;1.90;1.20;;;19.10;94.00;;;;;;5034375;28;20206;-76
2022/08/09 04:36:30;;;;;;;2.47;1.30;;;19.10;94.10;;;;;;5032558;28;20185;-75
2022/08/09 04:39:04;;;;;;;5.67;1.67;;;19.10;94.20;;;;;;5032819;28;21024;-75
2022/08/09 04:41:31;;;;;;;4.80;1.53;;;19.10;94.50;;;;;;5032815;28;20564;-76
2022/08/09 04:43:57;;;;;;;2.67;1.33;;;19.10;94.40;;;;;;5032642;28;20592;-75
2022/08/09 04:46:23;;;;;;;2.50;1.90;;;19.10;94.50;;;;;;5032179;28;20960;-76
2022/08/09 04:48:49;;;;;;;2.57;1.70;;;19.10;94.70;;;;;;5014924;28;20723;-76
2022/08/09 04:51:15;;;;;;;2.77;1.97;;;19.10;94.80;;;;;;5032405;28;20703;-76
2022/08/09 04:53:41;;;;;;;1.60;1.20;;;19.10;94.90;;;;;;5032459;28;20190;-75
2022/08/09 04:56:07;;;;;;;3.08;1.52;;;19.10;95.00;;;;;;5032304;28;20702;-76
2022/08/09 04:58:33;;;;;;;3.00;1.57;;;19.10;95.60;;;;;;5016004;28;20591;-76
2022/08/09 05:01:00;;;;;;;3.20;1.50;;;19.10;95.50;;;;;;5034740;28;20596;-75
2022/08/09 05:03:27;;;;;;;4.43;1.40;;;19.20;95.60;;;;;;5032988;28;21069;-76
2022/08/09 05:05:53;;;;;;;3.10;1.40;;;19.20;95.70;;;;;;5015662;28;20568;-76
2022/08/09 05:08:19;;;;;;;4.60;1.60;;;19.30;95.90;;;;;;5034701;28;20616;-77
2022/08/09 05:10:45;;;;;;;2.23;1.20;;;19.30;95.90;;;;;;5034796;28;20581;-76
2022/08/09 05:13:11;;;;;;;2.93;1.63;;;19.30;95.90;;;;;;5029400;28;20609;-74
2022/08/09 05:15:37;;;;;;;6.13;1.70;;;19.40;96.00;;;;;;5028693;28;21147;-74
2022/08/09 05:18:03;;;;;;;4.87;1.53;;;19.40;96.10;;;;;;5012378;28;20577;-74
2022/08/09 05:20:38;;;;;;;3.67;1.63;;;19.50;96.20;;;;;;4989553;28;20607;-75
2022/08/09 05:23:07;;;;;;;2.73;1.30;;;19.60;96.40;;;;;;5028225;28;20672;-74
2022/08/09 05:25:33;;;;;;;2.73;1.40;;;19.70;96.30;;;;;;4979174;28;20954;-74
2022/08/09 05:28:05;;;;;;;4.13;1.67;;;19.70;96.40;;;;;;4994974;28;20621;-75
2022/08/09 05:31:05;;;;;;;3.57;1.30;;;19.80;96.60;;;;;;5013783;28;20265;-75
2022/08/09 05:34:00;;;;;;;4.53;1.37;;;19.90;96.50;;;;;;5012274;28;20684;-74
2022/08/09 05:36:32;;;;;;;2.30;1.20;;;20.00;96.60;;;;;;5026415;28;20664;-74
2022/08/09 05:39:04;;;;;;;5.60;1.80;;;20.10;96.50;;;;;;5027150;28;21152;-75
2022/08/09 05:41:30;;;;;;;3.07;2.20;;;20.20;96.60;;;;;;4994385;28;20174;-74
2022/08/09 05:43:56;;;;;;;5.65;2.00;;;20.30;96.50;;;;;;5018763;28;20765;-79
2022/08/09 05:46:22;;;;;;;1.87;1.30;;;20.40;97.50;;;;;;5035774;28;20188;-79
2022/08/09 05:48:48;;;;;;;5.83;1.77;;;20.40;97.00;;;;;;4985690;28;20689;-79
2022/08/09 05:51:14;;;;;;;2.50;1.80;;;20.50;96.80;;;;;;5032925;28;20600;-79
2022/08/09 05:53:49;;;;;;;2.57;1.27;;;20.60;96.70;;;;;;5033342;28;20189;-79
2022/08/09 05:56:21;;;;;;;2.77;1.87;;;20.70;96.70;;;;;;5012165;28;20620;-80
2022/08/09 05:59:00;;;;;;;3.90;1.27;;;20.90;96.80;;;;;;5034359;28;20592;-80
2022/08/09 06:01:57;;;;;;;2.03;1.20;;;21.30;97.10;;;;;;5012640;28;20711;-81
2022/08/09 06:04:32;;;;;;;3.20;1.03;;;22.20;97.70;;;;;;5025932;28;20687;-79
2022/08/09 06:07:02;;;;;;;2.60;1.57;;;22.90;97.40;;;;;;5012784;28;20642;-80
2022/08/09 06:09:30;;;;;;;2.63;1.40;;;23.50;96.70;;;;;;5014679;28;20601;-80
2022/08/09 06:11:56;;;;;;;3.10;1.10;;;23.80;95.60;;;;;;5016230;28;20903;-81
2022/08/09 06:14:22;;;;;;;1.80;1.43;;;23.90;95.00;;;;;;5014806;28;20216;-79
2022/08/09 06:16:49;;;;;;;2.40;1.03;;;24.00;94.60;;;;;;5015235;28;20573;-81
2022/08/09 06:19:18;;;;;;;2.40;1.43;;;24.20;94.40;;;;;;5029112;28;20687;-81
2022/08/09 06:21:44;;;;;;;2.00;1.20;;;24.70;94.70;;;;;;5013386;28;20569;-81
2022/08/09 06:24:10;;;;;;;2.90;1.47;;;25.50;95.00;;;;;;5004515;28;20535;-80
2022/08/09 06:26:40;;;;;;;3.30;1.70;;;26.30;94.20;;;;;;5015377;28;20564;-80
2022/08/09 06:29:09;;;;;;;2.53;1.00;;;27.10;93.80;;;;;;5015953;28;20684;-81
2022/08/09 06:31:36;;;;;;;5.03;1.37;;;28.10;93.20;;;;;;4998250;28;21144;-80
2022/08/09 06:34:03;;;;;;;2.23;1.37;;;29.10;92.50;;;;;;5015076;28;20955;-81
2022/08/09 06:36:31;;;;;;;2.17;1.03;;;30.00;91.40;;;;;;5015283;28;20608;-79
2022/08/09 06:38:57;;;;;;;2.30;1.30;;;31.00;90.20;;;;;;5015259;28;20652;-79
2022/08/09 06:41:26;;;;;;;3.77;1.50;;;31.90;86.10;;;;;;5015548;28;20576;-81
2022/08/09 06:43:52;;;;;;;6.30;1.10;;;32.70;81.70;;;;;;5033730;28;21254;-79
2022/08/09 06:46:18;;;;;;;2.90;1.10;;;33.50;79.60;;;;;;5001119;28;20622;-80
2022/08/09 06:48:44;;;;;;;2.23;1.57;;;34.10;73.70;;;;;;5017447;28;20680;-80
2022/08/09 06:51:13;;;;;;;2.80;1.00;;;34.70;69.50;;;;;;5017400;28;20207;-79
2022/08/09 06:53:45;;;;;;;3.43;1.00;;;35.20;66.90;;;;;;5000607;28;20232;-80
2022/08/09 06:56:11;;;;;;;2.43;1.50;;;35.70;63.30;;;;;;5034352;28;20595;-80
2022/08/09 06:58:43;;;;;;;1.60;1.00;;;36.30;62.10;;;;;;5016752;28;21123;-79
2022/08/09 07:01:09;;;;;;;5.87;1.40;;;36.80;59.20;;;;;;5005243;28;20173;-80
2022/08/09 07:03:35;;;;;;;3.37;1.80;;;37.30;57.10;;;;;;5034896;28;20603;-78
2022/08/09 07:06:02;;;;;;;2.57;1.30;;;37.60;55.40;;;;;;5034368;28;20184;-79
2022/08/09 07:08:40;;;;;;;2.77;1.10;;;38.00;54.00;;;;;;5034531;28;20969;-79
2022/08/09 07:11:15;;;;;;;1.67;0.97;;;38.20;51.90;;;;;;5034526;28;20579;-79
2022/08/09 07:13:43;;;;;;;3.37;1.00;;;38.60;51.30;;;;;;5016323;28;21201;-79
2022/08/09 07:16:09;;;;;;;3.10;1.10;;;39.00;50.40;;;;;;5034038;28;20564;-76
2022/08/09 07:18:38;;;;;;;2.40;1.20;;;39.40;49.30;;;;;;5016530;28;20630;-79
2022/08/09 07:21:04;;;;;;;2.83;0.90;;;39.80;48.30;;;;;;5000538;28;21005;-79
2022/08/09 07:24:07;;;;;;;2.57;1.30;;;40.20;47.10;;;;;;5016510;28;20632;-78
2022/08/09 07:26:54;;;;;;;1.97;1.00;;;40.50;46.50;;;;;;5018375;28;20169;-79
2022/08/09 07:29:27;;;;;;;2.17;1.10;;;40.90;44.50;;;;;;5033728;28;21067;-78
2022/08/09 07:32:02;;;;;;;2.90;1.03;;;41.20;43.90;;;;;;5034080;28;20610;-80
2022/08/09 07:35:23;;;;;;;2.50;1.10;;;41.40;43.00;;;;;;4989987;28;20626;-80
2022/08/09 07:38:00;;;;;;;2.37;1.27;;;41.60;42.30;;;;;;5015692;28;21365;-79
2022/08/09 07:40:51;;;;;;;5.03;1.40;;;41.90;41.20;;;;;;5000542;28;20592;-79
2022/08/09 07:43:21;;;;;;;7.23;1.40;;;42.20;40.70;;;;;;5033439;28;20616;-79
2022/08/09 07:45:47;;;;;;;2.30;0.90;;;42.30;40.00;;;;;;5015693;28;21189;-79
2022/08/09 07:48:14;;;;;;;4.60;1.00;;;42.50;39.20;;;;;;5033712;28;20663;-78
2022/08/09 07:50:42;;;;;;;4.30;1.00;;;42.70;38.50;;;;;;5031979;28;20252;-79
2022/08/09 07:53:08;;;;;;;3.10;0.93;;;42.90;38.30;;;;;;5033567;28;20612;-79
2022/08/09 07:55:34;;;;;;;4.00;1.30;;;43.20;37.80;;;;;;5032983;28;20973;-78
2022/08/09 07:58:01;;;;;;;3.47;1.10;;;43.30;37.30;;;;;;5033470;28;20620;-79
2022/08/09 08:00:28;;;;;;;2.53;1.10;;;43.60;36.60;;;;;;5032269;28;20572;-78
2022/08/09 08:02:58;;;;;;;1.77;0.97;;;43.70;35.70;;;;;;5015799;28;20596;-78
2022/08/09 08:05:24;;;;;;;3.83;1.07;;;43.80;35.20;;;;;;5033019;28;20565;-80
2022/08/09 08:07:50;;;;;;;2.07;1.00;;;43.80;35.00;;;;;;5032266;28;20943;-78
2022/08/09 08:10:16;;;;;;;1.70;1.00;;;44.00;34.80;;;;;;5033457;28;20663;-78
2022/08/09 08:12:43;;;;;;;2.60;0.97;;;44.00;34.20;;;;;;5033383;28;20604;-78
2022/08/09 08:15:10;;;;;;;1.60;1.00;;;44.00;33.50;;;;;;5033792;28;20659;-80
2022/08/09 08:17:36;;;;;;;2.57;1.00;;;44.00;33.00;;;;;;5033330;28;20577;-80
2022/08/09 08:20:03;;;;;;;4.37;0.90;;;44.10;33.20;;;;;;5015672;28;20626;-80
2022/08/09 08:22:29;;;;;;;2.20;0.90;;;44.00;33.00;;;;;;5019360;28;20641;-80
2022/08/09 08:24:55;;;;;;;2.30;0.90;;;44.10;32.70;;;;;;5033730;28;20592;-80
2022/08/09 08:27:22;;;;;;;2.13;0.90;;;44.20;32.90;;;;;;5033184;28;20176;-80
2022/08/09 08:29:49;;;;;;;1.60;0.87;;;44.30;31.90;;;;;;5015568;28;20176;-81
2022/08/09 08:32:15;;;;;;;5.23;1.07;;;44.30;31.90;;;;;;5031965;28;20568;-79
2022/08/09 08:34:41;;;;;;;1.80;1.00;;;44.40;31.30;;;;;;5011550;28;21045;-80
2022/08/09 08:37:07;;;;;;;5.50;1.10;;;44.30;31.40;;;;;;5009833;28;20277;-80
2022/08/09 08:39:33;;;;;;;3.53;1.50;;;44.30;31.70;;;;;;5014979;28;20711;-80
2022/08/09 08:42:00;;;;;;;1.80;1.17;;;44.40;31.10;;;;;;5015246;28;20177;-80
2022/08/09 08:44:27;;;;;;;3.90;1.17;;;44.40;30.90;;;;;;5031461;28;20193;-80
2022/08/09 08:46:54;;;;;;;4.00;1.30;;;44.40;31.70;;;;;;5032370;28;21179;-80
2022/08/09 08:49:21;;;;;;;2.37;1.13;;;44.40;30.60;;;;;;5015597;28;20576;-79
2022/08/09 08:51:48;;;;;;;1.70;1.10;;;44.50;30.60;;;;;;5037205;28;21119;-80
2022/08/09 08:54:15;;;;;;;4.23;1.80;;;44.50;30.10;;;;;;5032437;28;20599;-79
2022/08/09 08:56:40;;;;;;;1.90;1.40;;;44.40;29.70;;;;;;5030847;28;20608;-80
2022/08/09 08:59:08;;;;;;;2.80;1.07;;;44.40;29.60;;;;;;5014902;28;20719;-80
2022/08/09 09:01:36;;;;;;;1.80;1.07;;;44.20;29.40;;;;;;5032256;28;20646;-79
2022/08/09 09:04:07;;;;;;;5.87;1.30;;;44.10;29.30;;;;;;5014717;28;20687;-79
2022/08/09 09:06:35;;;;;;;4.60;1.00;;;44.10;29.80;;;;;;5031406;28;20663;-80
2022/08/09 09:09:04;;;;;;;4.33;1.00;;;44.10;29.70;;;;;;5014318;28;20576;-79
2022/08/09 09:11:30;;;;;;;5.00;1.10;;;44.10;29.80;;;;;;5032345;28;20565;-79
2022/08/09 09:13:59;;;;;;;2.47;1.10;;;44.10;29.50;;;;;;5032121;28;20604;-79
2022/08/09 09:16:30;;;;;;;9.83;1.13;;;44.10;29.00;;;;;;5031762;28;20573;-79
2022/08/09 09:18:56;;;;;;;3.27;1.23;;;44.00;29.30;;;;;;4997932;28;21221;-79
2022/08/09 09:21:24;;;;;;;1.60;0.90;;;44.00;29.40;;;;;;5032230;28;20568;-78
2022/08/09 09:23:50;;;;;;;1.70;1.03;;;44.00;28.80;;;;;;5032626;28;20288;-79
2022/08/09 09:26:22;;;;;;;3.20;0.80;;;43.80;29.00;;;;;;5032290;28;20695;-79
2022/08/09 09:28:49;;;;;;;2.10;0.90;;;43.80;29.40;;;;;;5035735;28;20604;-79
2022/08/09 09:31:18;;;;;;;3.00;1.00;;;43.80;29.30;;;;;;5027705;28;20596;-79
2022/08/09 09:33:44;;;;;;;3.17;1.17;;;43.80;28.90;;;;;;5031667;28;20669;-79
2022/08/09 09:36:12;;;;;;;2.23;1.00;;;43.80;28.80;;;;;;5031392;28;20568;-78
2022/08/09 09:38:56;;;;;;;1.80;1.13;;;43.70;28.30;;;;;;5031472;28;21210;-78
2022/08/09 09:41:22;;;;;;;1.47;1.00;;;43.60;29.10;;;;;;5031379;28;20675;-79
2022/08/09 09:43:49;;;;;;;2.77;0.97;;;43.60;28.70;;;;;;5031256;28;20600;-79
2022/08/09 09:46:15;;;;;;;2.40;1.00;;;43.60;28.60;;;;;;5028369;28;20620;-79
2022/08/09 09:49:03;;;;;;;2.90;0.90;;;43.60;28.30;;;;;;5031386;28;20937;-79
2022/08/09 09:51:29;;;;;;;2.23;1.20;;;43.60;28.90;;;;;;5031566;28;20182;-79
2022/08/09 09:54:09;;;;;;;2.27;1.67;;;43.80;28.80;;;;;;5032054;28;20795;-81
2022/08/09 09:56:40;;;;;;;2.60;1.30;;;43.80;28.80;;;;;;5030400;28;20576;-81
2022/08/09 09:59:08;;;;;;;2.33;1.50;;;43.90;28.30;;;;;;5031224;28;20627;-81
2022/08/09 10:01:34;;;;;;;2.57;1.10;;;43.90;27.90;;;;;;5031577;28;21104;-81
2022/08/09 10:04:02;;;;;;;3.00;1.10;;;43.90;28.20;;;;;;5036013;28;20647;-81
2022/08/09 10:06:38;;;;;;;5.53;1.50;;;43.80;27.70;;;;;;5030425;28;20645;-81
2022/08/09 10:09:04;;;;;;;2.57;1.20;;;43.70;27.30;;;;;;5031505;28;20675;-81
2022/08/09 10:11:32;;;;;;;4.33;1.30;;;43.50;27.20;;;;;;5031349;28;21174;-81
2022/08/09 10:13:58;;;;;;;1.67;1.10;;;43.40;27.60;;;;;;5031301;28;20255;-82
2022/08/09 10:16:30;;;;;;;1.57;0.80;;;43.40;27.30;;;;;;5013178;28;21021;-81
2022/08/09 10:18:59;;;;;;;1.80;0.90;;;43.30;27.20;;;;;;5031387;28;20681;-82
2022/08/09 10:21:25;;;;;;;2.10;1.10;;;43.40;27.70;;;;;;5031292;28;20626;-82
2022/08/09 10:24:00;;;;;;;2.30;1.23;;;43.30;26.90;;;;;;5030788;28;20596;-82
2022/08/09 10:26:27;;;;;;;1.80;1.17;;;43.20;26.80;;;;;;5030858;28;20560;-81
2022/08/09 10:28:53;;;;;;;2.60;1.33;;;43.20;27.00;;;;;;5031084;28;20634;-82
2022/08/09 10:31:20;;;;;;;2.80;1.37;;;43.30;27.00;;;;;;5013512;28;20996;-82
2022/08/09 10:33:46;;;;;;;2.03;1.10;;;43.30;27.00;;;;;;5030185;28;20594;-82
2022/08/09 10:36:14;;;;;;;1.60;1.00;;;43.30;27.30;;;;;;5031234;28;20560;-82
2022/08/09 10:38:42;;;;;;;2.73;0.80;;;43.20;26.60;;;;;;5031212;28;20960;-82
2022/08/09 10:41:10;;;;;;;5.20;1.10;;;43.10;26.50;;;;;;5019929;28;20590;-82
2022/08/09 10:43:41;;;;;;;1.50;0.90;;;43.00;26.70;;;;;;5029756;28;21190;-82
2022/08/09 10:46:36;;;;;;;1.50;1.00;;;43.00;26.90;;;;;;5030837;28;20881;-83
2022/08/09 10:49:32;;;;;;;6.20;1.40;;;42.90;27.00;;;;;;5013448;28;20633;-82
2022/08/09 10:52:17;;;;;;;2.43;1.20;;;42.90;27.10;;;;;;5013440;28;20663;-82
2022/08/09 10:54:43;;;;;;;2.80;1.00;;;42.90;27.60;;;;;;5013121;28;20889;-81
2022/08/09 10:57:13;;;;;;;1.80;1.10;;;42.80;27.20;;;;;;5029891;28;20630;-82
2022/08/09 10:59:40;;;;;;;5.23;0.93;;;42.70;27.20;;;;;;5031194;28;20782;-82
2022/08/09 11:02:07;;;;;;;2.40;1.17;;;42.70;27.20;;;;;;5013375;28;20595;-81
2022/08/09 11:04:34;;;;;;;5.53;1.50;;;42.60;27.20;;;;;;5013107;28;20604;-82
2022/08/09 11:07:00;;;;;;;2.90;1.10;;;42.40;27.00;;;;;;5031359;28;20564;-81
2022/08/09 11:09:41;;;;;;;3.00;1.20;;;42.30;27.30;;;;;;5033407;28;20607;-82
2022/08/09 11:12:39;;;;;;;2.00;1.20;;;42.20;27.30;;;;;;5034876;28;20547;-81
2022/08/09 11:15:24;;;;;;;4.07;1.20;;;42.00;27.30;;;;;;5001172;28;20615;-81
2022/08/09 11:17:53;;;;;;;2.10;1.37;;;41.90;27.50;;;;;;5004442;28;20636;-82
2022/08/09 11:20:38;;;;;;;2.00;1.27;;;41.80;27.20;;;;;;5038447;28;20642;-81
2022/08/09 11:23:04;;;;;;;2.10;1.20;;;41.50;27.20;;;;;;5035836;28;20615;-83
2022/08/09 11:25:30;;;;;;;2.00;0.80;;;41.40;27.20;;;;;;5033893;28;20959;-82
2022/08/09 11:27:57;;;;;;;3.10;1.07;;;41.20;27.20;;;;;;5033488;28;20185;-82
2022/08/09 11:30:26;;;;;;;2.93;1.10;;;41.10;27.40;;;;;;5033575;28;20590;-82
2022/08/09 11:33:24;;;;;;;7.50;1.33;;;41.00;27.30;;;;;;5016439;28;20650;-82
2022/08/09 11:35:58;;;;;;;4.80;0.97;;;40.80;27.70;;;;;;5016150;28;20991;-83
2022/08/09 11:38:26;;;;;;;3.43;1.77;;;40.70;27.70;;;;;;5034008;28;20996;-83
2022/08/09 11:40:53;;;;;;;1.80;1.00;;;40.70;27.80;;;;;;5033987;28;20655;-83
2022/08/09 11:43:27;;;;;;;2.10;1.10;;;40.60;27.90;;;;;;5032692;28;20604;-82
2022/08/09 11:45:59;;;;;;;2.17;1.17;;;40.50;28.00;;;;;;5033410;28;21162;-82
2022/08/09 11:48:28;;;;;;;1.70;0.90;;;40.50;27.80;;;;;;5016170;28;21116;-82
2022/08/09 11:51:00;;;;;;;1.80;1.30;;;40.40;27.80;;;;;;5032674;28;20668;-82
2022/08/09 11:53:32;;;;;;;2.87;1.20;;;40.40;27.80;;;;;;5034266;28;20600;-83
2022/08/09 11:56:19;;;;;;;4.30;1.93;;;40.30;27.70;;;;;;5038248;28;20584;-83
2022/08/09 11:58:48;;;;;;;4.20;2.97;;;40.20;28.10;;;;;;5032950;28;20712;-83
2022/08/09 12:01:17;;;;;;;2.07;1.10;;;40.10;28.20;;;;;;5034516;28;20565;-83
2022/08/09 12:03:44;;;;;;;1.83;1.20;;;39.90;27.90;;;;;;5033521;28;20933;-83
2022/08/09 12:06:16;;;;;;;3.07;1.17;;;39.80;28.00;;;;;;5033229;28;20596;-83
2022/08/09 12:08:51;;;;;;;3.93;1.37;;;39.70;27.60;;;;;;5033512;28;20577;-83
2022/08/09 12:11:22;;;;;;;4.00;1.73;;;39.50;28.10;;;;;;5016281;28;20602;-82
2022/08/09 12:13:53;;;;;;;3.67;1.50;;;39.40;28.10;;;;;;5033545;28;20699;-82
2022/08/09 12:16:23;;;;;;;1.90;1.10;;;39.30;28.00;;;;;;5015384;28;20587;-82
2022/08/09 12:18:51;;;;;;;3.13;1.27;;;39.30;27.90;;;;;;5032632;28;20620;-82
2022/08/09 12:21:32;;;;;;;2.10;1.20;;;39.10;27.80;;;;;;5033436;28;20617;-82
2022/08/09 12:24:01;;;;;;;2.60;1.33;;;38.80;27.90;;;;;;5015849;28;20600;-82
2022/08/09 12:26:40;;;;;;;3.57;1.20;;;38.60;28.00;;;;;;5033192;28;20591;-82
2022/08/09 12:29:06;;;;;;;2.13;0.93;;;38.30;28.20;;;;;;5016152;28;20607;-82
2022/08/09 12:31:33;;;;;;;4.13;1.10;;;38.30;28.40;;;;;;5021027;28;20579;-81
2022/08/09 12:33:59;;;;;;;1.67;1.20;;;38.20;28.60;;;;;;5032995;28;20600;-83
2022/08/09 12:36:25;;;;;;;2.27;0.90;;;38.10;28.60;;;;;;5032703;28;20599;-83
2022/08/09 12:38:52;;;;;;;4.13;1.27;;;38.00;28.60;;;;;;5032731;28;20717;-82
2022/08/09 12:41:32;;;;;;;3.90;1.30;;;37.80;28.70;;;;;;5015169;28;20168;-82
2022/08/09 12:43:59;;;;;;;3.73;0.90;;;37.60;28.60;;;;;;5015243;28;20595;-82
2022/08/09 12:46:26;;;;;;;3.90;1.43;;;37.40;28.60;;;;;;5030630;28;20675;-82
2022/08/09 12:48:55;;;;;;;3.60;1.30;;;37.20;28.70;;;;;;5032797;28;20629;-82
2022/08/09 12:51:22;;;;;;;2.13;1.00;;;37.00;28.90;;;;;;5033316;28;20571;-81
2022/08/09 12:53:58;;;;;;;4.53;1.17;;;36.80;28.90;;;;;;5033279;28;20616;-82
2022/08/09 12:56:24;;;;;;;7.20;1.20;;;36.50;28.90;;;;;;5033366;28;20704;-83
2022/08/09 12:59:06;;;;;;;2.37;1.10;;;36.20;28.70;;;;;;5033271;28;20631;-82
2022/08/09 13:01:33;;;;;;;2.57;1.27;;;35.80;29.00;;;;;;5033902;28;20724;-82